sensor_id;sensor_type;location;lat;lon;timestamp;temperature;humidity
4406;DHT22;2216;53.806;11.598;2023-01-08T00:01:07;8.60;84.10
4406;DHT22;2216;53.806;11.598;2023-01-08T00:03:36;8.60;84.10
4406;DHT22;2216;53.806;11.598;2023-01-08T00:06:07;8.50;84.10
4406;DHT22;2216;53.806;11.598;2023-01-08T00:08:35;8.50;83.90
4406;DHT22;2216;53.806;11.598;2023-01-08T00:11:01;8.50;84.00
4406;DHT22;2216;53.806;11.598;2023-01-08T00:13:27;8.50;84.10
4406;DHT22;2216;53.806;11.598;2023-01-08T00:15:53;8.50;84.20
4406;DHT22;2216;53.806;11.598;2023-01-08T00:18:19;8.50;84.10
4406;DHT22;2216;53.806;11.598;2023-01-08T00:20:46;8.50;84.10
4406;DHT22;2216;53.806;11.598;2023-01-08T00:23:12;8.40;84.10
4406;DHT22;2216;53.806;11.598;2023-01-08T00:25:42;8.40;84.20
4406;DHT22;2216;53.806;11.598;2023-01-08T00:28:07;8.40;84.20
4406;DHT22;2216;53.806;11.598;2023-01-08T00:30:34;8.40;84.20
4406;DHT22;2216;53.806;11.598;2023-01-08T00:33:00;8.40;84.10
4406;DHT22;2216;53.806;11.598;2023-01-08T00:35:26;8.40;84.30
4406;DHT22;2216;53.806;11.598;2023-01-08T00:37:51;8.40;84.30
4406;DHT22;2216;53.806;11.598;2023-01-08T00:40:17;8.30;84.30
4406;DHT22;2216;53.806;11.598;2023-01-08T00:42:43;8.30;84.30
4406;DHT22;2216;53.806;11.598;2023-01-08T00:45:09;8.30;84.50
4406;DHT22;2216;53.806;11.598;2023-01-08T00:47:35;8.30;84.20
4406;DHT22;2216;53.806;11.598;2023-01-08T00:50:00;8.30;84.20
4406;DHT22;2216;53.806;11.598;2023-01-08T00:52:26;8.40;84.30
4406;DHT22;2216;53.806;11.598;2023-01-08T00:54:52;8.30;84.10
4406;DHT22;2216;53.806;11.598;2023-01-08T00:57:18;8.30;85.00
4406;DHT22;2216;53.806;11.598;2023-01-08T00:59:43;8.30;84.20
4406;DHT22;2216;53.806;11.598;2023-01-08T01:02:09;8.30;84.30
4406;DHT22;2216;53.806;11.598;2023-01-08T01:04:35;8.30;84.20
4406;DHT22;2216;53.806;11.598;2023-01-08T01:07:01;8.30;84.20
4406;DHT22;2216;53.806;11.598;2023-01-08T01:09:26;8.30;84.30
4406;DHT22;2216;53.806;11.598;2023-01-08T01:11:52;8.40;84.30
4406;DHT22;2216;53.806;11.598;2023-01-08T01:14:18;8.30;84.20
4406;DHT22;2216;53.806;11.598;2023-01-08T01:16:43;8.30;84.20
4406;DHT22;2216;53.806;11.598;2023-01-08T01:19:11;8.30;84.20
4406;DHT22;2216;53.806;11.598;2023-01-08T01:21:37;8.20;84.10
4406;DHT22;2216;53.806;11.598;2023-01-08T01:24:04;8.20;84.10
4406;DHT22;2216;53.806;11.598;2023-01-08T01:26:31;8.20;84.10
4406;DHT22;2216;53.806;11.598;2023-01-08T01:28:58;8.20;84.10
4406;DHT22;2216;53.806;11.598;2023-01-08T01:31:26;8.20;84.20
4406;DHT22;2216;53.806;11.598;2023-01-08T01:33:53;8.20;84.20
4406;DHT22;2216;53.806;11.598;2023-01-08T01:36:20;8.20;84.20
4406;DHT22;2216;53.806;11.598;2023-01-08T01:38:49;8.10;84.20
4406;DHT22;2216;53.806;11.598;2023-01-08T01:41:36;8.20;84.20
4406;DHT22;2216;53.806;11.598;2023-01-08T01:44:33;8.10;84.30
4406;DHT22;2216;53.806;11.598;2023-01-08T01:47:29;8.10;84.20
4406;DHT22;2216;53.806;11.598;2023-01-08T01:52:42;8.10;84.10
4406;DHT22;2216;53.806;11.598;2023-01-08T01:55:11;8.10;84.10
4406;DHT22;2216;53.806;11.598;2023-01-08T01:57:38;8.10;84.10
4406;DHT22;2216;53.806;11.598;2023-01-08T02:00:06;8.10;84.10
4406;DHT22;2216;53.806;11.598;2023-01-08T02:02:33;8.00;84.10
4406;DHT22;2216;53.806;11.598;2023-01-08T02:05:00;8.00;84.80
4406;DHT22;2216;53.806;11.598;2023-01-08T02:07:43;8.00;84.00
4406;DHT22;2216;53.806;11.598;2023-01-08T02:10:34;8.00;84.00
4406;DHT22;2216;53.806;11.598;2023-01-08T02:13:30;8.00;84.00
4406;DHT22;2216;53.806;11.598;2023-01-08T02:16:25;8.00;84.10
4406;DHT22;2216;53.806;11.598;2023-01-08T02:19:03;7.90;84.10
4406;DHT22;2216;53.806;11.598;2023-01-08T02:22:10;7.90;84.10
4406;DHT22;2216;53.806;11.598;2023-01-08T02:25:01;7.90;84.20
4406;DHT22;2216;53.806;11.598;2023-01-08T02:27:34;7.90;84.20
4406;DHT22;2216;53.806;11.598;2023-01-08T02:30:03;7.90;84.30
4406;DHT22;2216;53.806;11.598;2023-01-08T02:32:36;7.90;84.30
4406;DHT22;2216;53.806;11.598;2023-01-08T02:35:04;7.90;84.40
4406;DHT22;2216;53.806;11.598;2023-01-08T02:37:31;7.90;84.40
4406;DHT22;2216;53.806;11.598;2023-01-08T02:45:51;8.00;84.50
4406;DHT22;2216;53.806;11.598;2023-01-08T02:48:37;8.00;84.50
4406;DHT22;2216;53.806;11.598;2023-01-08T02:51:18;8.00;84.50
4406;DHT22;2216;53.806;11.598;2023-01-08T02:53:49;8.00;84.50
4406;DHT22;2216;53.806;11.598;2023-01-08T02:56:22;8.00;84.40
4406;DHT22;2216;53.806;11.598;2023-01-08T02:58:51;8.00;84.50
4406;DHT22;2216;53.806;11.598;2023-01-08T03:01:20;8.10;84.50
4406;DHT22;2216;53.806;11.598;2023-01-08T03:03:51;8.00;84.40
4406;DHT22;2216;53.806;11.598;2023-01-08T03:06:22;8.00;84.40
4406;DHT22;2216;53.806;11.598;2023-01-08T03:08:50;8.10;84.40
4406;DHT22;2216;53.806;11.598;2023-01-08T03:11:19;8.10;84.50
4406;DHT22;2216;53.806;11.598;2023-01-08T03:16:38;8.10;84.50
4406;DHT22;2216;53.806;11.598;2023-01-08T03:19:13;8.10;84.40
4406;DHT22;2216;53.806;11.598;2023-01-08T03:21:42;8.10;84.40
4406;DHT22;2216;53.806;11.598;2023-01-08T03:24:11;8.10;84.40
4406;DHT22;2216;53.806;11.598;2023-01-08T03:26:38;8.10;84.40
4406;DHT22;2216;53.806;11.598;2023-01-08T03:29:09;8.10;84.40
4406;DHT22;2216;53.806;11.598;2023-01-08T03:31:37;8.10;84.40
4406;DHT22;2216;53.806;11.598;2023-01-08T03:34:04;8.10;84.40
4406;DHT22;2216;53.806;11.598;2023-01-08T03:36:33;8.10;84.40
4406;DHT22;2216;53.806;11.598;2023-01-08T03:39:06;8.10;84.30
4406;DHT22;2216;53.806;11.598;2023-01-08T03:41:35;8.10;84.40
4406;DHT22;2216;53.806;11.598;2023-01-08T03:44:01;8.10;84.40
4406;DHT22;2216;53.806;11.598;2023-01-08T03:46:30;8.10;84.40
4406;DHT22;2216;53.806;11.598;2023-01-08T03:48:58;8.20;84.50
4406;DHT22;2216;53.806;11.598;2023-01-08T03:51:25;8.20;84.50
4406;DHT22;2216;53.806;11.598;2023-01-08T03:53:53;8.20;84.40
4406;DHT22;2216;53.806;11.598;2023-01-08T03:56:21;8.20;84.50
4406;DHT22;2216;53.806;11.598;2023-01-08T03:58:47;8.20;84.50
4406;DHT22;2216;53.806;11.598;2023-01-08T04:01:13;8.20;84.50
4406;DHT22;2216;53.806;11.598;2023-01-08T04:03:38;8.20;84.50
4406;DHT22;2216;53.806;11.598;2023-01-08T04:06:04;8.10;84.40
4406;DHT22;2216;53.806;11.598;2023-01-08T04:08:30;8.20;84.50
4406;DHT22;2216;53.806;11.598;2023-01-08T04:10:55;8.20;85.20
4406;DHT22;2216;53.806;11.598;2023-01-08T04:13:21;8.20;84.40
4406;DHT22;2216;53.806;11.598;2023-01-08T04:15:50;8.20;84.50
4406;DHT22;2216;53.806;11.598;2023-01-08T04:18:17;8.20;84.40
4406;DHT22;2216;53.806;11.598;2023-01-08T04:20:46;8.20;84.50
4406;DHT22;2216;53.806;11.598;2023-01-08T04:23:13;8.20;84.50
4406;DHT22;2216;53.806;11.598;2023-01-08T04:25:38;8.20;84.40
4406;DHT22;2216;53.806;11.598;2023-01-08T04:28:04;8.20;84.40
4406;DHT22;2216;53.806;11.598;2023-01-08T04:30:30;8.20;84.50
4406;DHT22;2216;53.806;11.598;2023-01-08T04:32:56;8.20;84.40
4406;DHT22;2216;53.806;11.598;2023-01-08T04:35:22;8.20;84.40
4406;DHT22;2216;53.806;11.598;2023-01-08T04:37:47;8.20;84.40
4406;DHT22;2216;53.806;11.598;2023-01-08T04:40:13;8.20;84.40
4406;DHT22;2216;53.806;11.598;2023-01-08T04:42:39;8.20;84.40
4406;DHT22;2216;53.806;11.598;2023-01-08T04:45:06;8.20;84.40
4406;DHT22;2216;53.806;11.598;2023-01-08T04:47:32;8.20;84.40
4406;DHT22;2216;53.806;11.598;2023-01-08T04:49:58;8.20;84.30
4406;DHT22;2216;53.806;11.598;2023-01-08T04:52:23;8.20;84.30
4406;DHT22;2216;53.806;11.598;2023-01-08T04:54:49;8.20;84.30
4406;DHT22;2216;53.806;11.598;2023-01-08T04:57:15;8.20;84.30
4406;DHT22;2216;53.806;11.598;2023-01-08T04:59:40;8.20;84.40
4406;DHT22;2216;53.806;11.598;2023-01-08T05:02:06;8.10;84.30
4406;DHT22;2216;53.806;11.598;2023-01-08T05:04:32;8.20;84.30
4406;DHT22;2216;53.806;11.598;2023-01-08T05:06:57;8.20;84.40
4406;DHT22;2216;53.806;11.598;2023-01-08T05:09:23;8.20;84.40
4406;DHT22;2216;53.806;11.598;2023-01-08T05:11:49;8.20;84.40
4406;DHT22;2216;53.806;11.598;2023-01-08T05:14:14;8.20;84.40
4406;DHT22;2216;53.806;11.598;2023-01-08T05:16:40;8.20;84.40
4406;DHT22;2216;53.806;11.598;2023-01-08T05:19:06;8.20;84.40
4406;DHT22;2216;53.806;11.598;2023-01-08T05:21:31;8.20;84.40
4406;DHT22;2216;53.806;11.598;2023-01-08T05:23:57;8.20;84.50
4406;DHT22;2216;53.806;11.598;2023-01-08T05:26:23;8.20;84.50
4406;DHT22;2216;53.806;11.598;2023-01-08T05:28:49;8.20;85.20
4406;DHT22;2216;53.806;11.598;2023-01-08T05:31:15;8.20;84.40
4406;DHT22;2216;53.806;11.598;2023-01-08T05:33:41;8.20;84.40
4406;DHT22;2216;53.806;11.598;2023-01-08T05:36:08;8.20;84.40
4406;DHT22;2216;53.806;11.598;2023-01-08T05:38:35;8.20;84.40
4406;DHT22;2216;53.806;11.598;2023-01-08T05:41:02;8.20;85.10
4406;DHT22;2216;53.806;11.598;2023-01-08T05:43:28;8.30;84.50
4406;DHT22;2216;53.806;11.598;2023-01-08T05:45:56;8.30;84.50
4406;DHT22;2216;53.806;11.598;2023-01-08T05:48:22;8.30;84.40
4406;DHT22;2216;53.806;11.598;2023-01-08T05:50:48;8.20;84.40
4406;DHT22;2216;53.806;11.598;2023-01-08T05:53:14;8.30;84.40
4406;DHT22;2216;53.806;11.598;2023-01-08T05:55:40;8.30;84.40
4406;DHT22;2216;53.806;11.598;2023-01-08T05:58:05;8.30;84.40
4406;DHT22;2216;53.806;11.598;2023-01-08T06:00:32;8.30;84.40
4406;DHT22;2216;53.806;11.598;2023-01-08T06:02:58;8.30;84.50
4406;DHT22;2216;53.806;11.598;2023-01-08T06:05:24;8.30;84.40
4406;DHT22;2216;53.806;11.598;2023-01-08T06:07:50;8.30;84.40
4406;DHT22;2216;53.806;11.598;2023-01-08T06:10:16;8.30;84.40
4406;DHT22;2216;53.806;11.598;2023-01-08T06:12:41;8.30;85.10
4406;DHT22;2216;53.806;11.598;2023-01-08T06:15:08;8.30;84.40
4406;DHT22;2216;53.806;11.598;2023-01-08T06:17:34;8.30;84.40
4406;DHT22;2216;53.806;11.598;2023-01-08T06:20:00;8.30;84.40
4406;DHT22;2216;53.806;11.598;2023-01-08T06:22:26;8.30;84.30
4406;DHT22;2216;53.806;11.598;2023-01-08T06:24:52;8.30;84.30
4406;DHT22;2216;53.806;11.598;2023-01-08T06:27:18;8.30;84.40
4406;DHT22;2216;53.806;11.598;2023-01-08T06:29:43;8.30;84.30
4406;DHT22;2216;53.806;11.598;2023-01-08T06:32:09;8.30;84.30
4406;DHT22;2216;53.806;11.598;2023-01-08T06:34:35;8.30;84.30
4406;DHT22;2216;53.806;11.598;2023-01-08T06:37:00;8.20;84.30
4406;DHT22;2216;53.806;11.598;2023-01-08T06:39:26;8.20;84.30
4406;DHT22;2216;53.806;11.598;2023-01-08T06:41:52;8.20;84.30
4406;DHT22;2216;53.806;11.598;2023-01-08T06:44:18;8.20;84.30
4406;DHT22;2216;53.806;11.598;2023-01-08T06:46:44;8.20;84.30
4406;DHT22;2216;53.806;11.598;2023-01-08T06:49:09;8.20;84.30
4406;DHT22;2216;53.806;11.598;2023-01-08T06:51:35;8.20;84.20
4406;DHT22;2216;53.806;11.598;2023-01-08T06:54:01;8.20;84.20
4406;DHT22;2216;53.806;11.598;2023-01-08T06:56:27;8.20;84.30
4406;DHT22;2216;53.806;11.598;2023-01-08T06:58:53;8.20;84.20
4406;DHT22;2216;53.806;11.598;2023-01-08T07:01:19;8.20;84.30
4406;DHT22;2216;53.806;11.598;2023-01-08T07:03:44;8.10;84.20
4406;DHT22;2216;53.806;11.598;2023-01-08T07:06:14;8.20;84.30
4406;DHT22;2216;53.806;11.598;2023-01-08T07:08:42;8.10;84.40
4406;DHT22;2216;53.806;11.598;2023-01-08T07:11:08;8.10;84.30
4406;DHT22;2216;53.806;11.598;2023-01-08T07:13:33;8.10;84.30
4406;DHT22;2216;53.806;11.598;2023-01-08T07:16:07;8.10;84.40
4406;DHT22;2216;53.806;11.598;2023-01-08T07:18:34;8.10;84.30
4406;DHT22;2216;53.806;11.598;2023-01-08T07:21:04;8.00;84.30
4406;DHT22;2216;53.806;11.598;2023-01-08T07:23:30;8.00;84.30
4406;DHT22;2216;53.806;11.598;2023-01-08T07:26:05;8.00;84.30
4406;DHT22;2216;53.806;11.598;2023-01-08T07:28:32;8.00;84.40
4406;DHT22;2216;53.806;11.598;2023-01-08T07:31:02;8.00;84.40
4406;DHT22;2216;53.806;11.598;2023-01-08T07:33:29;8.00;84.40
4406;DHT22;2216;53.806;11.598;2023-01-08T07:35:55;8.00;84.40
4406;DHT22;2216;53.806;11.598;2023-01-08T07:38:21;8.00;84.40
4406;DHT22;2216;53.806;11.598;2023-01-08T07:40:47;8.00;84.40
4406;DHT22;2216;53.806;11.598;2023-01-08T07:43:13;8.00;84.40
4406;DHT22;2216;53.806;11.598;2023-01-08T07:45:39;8.00;84.50
4406;DHT22;2216;53.806;11.598;2023-01-08T07:48:06;7.90;84.40
4406;DHT22;2216;53.806;11.598;2023-01-08T07:50:32;8.00;84.60
4406;DHT22;2216;53.806;11.598;2023-01-08T07:52:59;7.90;84.50
4406;DHT22;2216;53.806;11.598;2023-01-08T07:55:26;7.90;84.50
4406;DHT22;2216;53.806;11.598;2023-01-08T07:57:52;7.90;84.50
4406;DHT22;2216;53.806;11.598;2023-01-08T08:00:18;7.90;84.50
4406;DHT22;2216;53.806;11.598;2023-01-08T08:02:44;8.00;84.60
4406;DHT22;2216;53.806;11.598;2023-01-08T08:05:09;7.90;84.60
4406;DHT22;2216;53.806;11.598;2023-01-08T08:07:35;7.90;84.60
4406;DHT22;2216;53.806;11.598;2023-01-08T08:10:02;7.90;84.70
4406;DHT22;2216;53.806;11.598;2023-01-08T08:12:28;7.90;84.70
4406;DHT22;2216;53.806;11.598;2023-01-08T08:14:54;7.90;84.70
4406;DHT22;2216;53.806;11.598;2023-01-08T08:17:20;7.90;84.70
4406;DHT22;2216;53.806;11.598;2023-01-08T08:19:45;7.90;84.70
4406;DHT22;2216;53.806;11.598;2023-01-08T08:22:12;7.90;84.80
4406;DHT22;2216;53.806;11.598;2023-01-08T08:24:38;8.00;84.80
4406;DHT22;2216;53.806;11.598;2023-01-08T08:27:03;8.00;84.80
4406;DHT22;2216;53.806;11.598;2023-01-08T08:29:29;8.00;84.90
4406;DHT22;2216;53.806;11.598;2023-01-08T08:31:55;8.00;84.80
4406;DHT22;2216;53.806;11.598;2023-01-08T08:34:21;8.00;84.80
4406;DHT22;2216;53.806;11.598;2023-01-08T08:36:47;8.00;85.00
4406;DHT22;2216;53.806;11.598;2023-01-08T08:39:13;8.00;84.90
4406;DHT22;2216;53.806;11.598;2023-01-08T08:41:39;8.00;85.00
4406;DHT22;2216;53.806;11.598;2023-01-08T08:44:07;8.00;85.00
4406;DHT22;2216;53.806;11.598;2023-01-08T08:46:33;8.00;85.10
4406;DHT22;2216;53.806;11.598;2023-01-08T08:48:59;8.00;85.00
4406;DHT22;2216;53.806;11.598;2023-01-08T08:51:25;8.00;85.20
4406;DHT22;2216;53.806;11.598;2023-01-08T08:53:51;8.00;85.10
4406;DHT22;2216;53.806;11.598;2023-01-08T08:56:17;8.00;85.30
4406;DHT22;2216;53.806;11.598;2023-01-08T08:58:42;8.00;85.30
4406;DHT22;2216;53.806;11.598;2023-01-08T09:01:10;8.10;85.30
4406;DHT22;2216;53.806;11.598;2023-01-08T09:03:36;8.10;85.40
4406;DHT22;2216;53.806;11.598;2023-01-08T09:06:02;8.10;85.30
4406;DHT22;2216;53.806;11.598;2023-01-08T09:08:28;8.10;85.30
4406;DHT22;2216;53.806;11.598;2023-01-08T09:10:54;8.10;85.40
4406;DHT22;2216;53.806;11.598;2023-01-08T09:13:19;8.10;85.40
4406;DHT22;2216;53.806;11.598;2023-01-08T09:15:45;8.10;85.40
4406;DHT22;2216;53.806;11.598;2023-01-08T09:18:11;8.10;85.40
4406;DHT22;2216;53.806;11.598;2023-01-08T09:20:36;8.20;85.50
4406;DHT22;2216;53.806;11.598;2023-01-08T09:23:02;8.20;85.40
4406;DHT22;2216;53.806;11.598;2023-01-08T09:25:28;8.20;85.40
4406;DHT22;2216;53.806;11.598;2023-01-08T09:28:03;8.20;85.50
4406;DHT22;2216;53.806;11.598;2023-01-08T09:30:30;8.20;85.50
4406;DHT22;2216;53.806;11.598;2023-01-08T09:33:00;8.20;85.50
4406;DHT22;2216;53.806;11.598;2023-01-08T09:35:27;8.30;85.50
4406;DHT22;2216;53.806;11.598;2023-01-08T09:37:54;8.30;85.50
4406;DHT22;2216;53.806;11.598;2023-01-08T09:40:27;8.30;85.50
4406;DHT22;2216;53.806;11.598;2023-01-08T09:42:59;8.30;85.50
4406;DHT22;2216;53.806;11.598;2023-01-08T09:45:28;8.30;85.50
4406;DHT22;2216;53.806;11.598;2023-01-08T09:47:57;8.30;85.50
4406;DHT22;2216;53.806;11.598;2023-01-08T09:50:27;8.40;85.60
4406;DHT22;2216;53.806;11.598;2023-01-08T09:52:55;8.40;85.60
4406;DHT22;2216;53.806;11.598;2023-01-08T09:55:22;8.40;85.70
4406;DHT22;2216;53.806;11.598;2023-01-08T09:57:48;8.40;85.60
4406;DHT22;2216;53.806;11.598;2023-01-08T10:00:16;8.40;85.60
4406;DHT22;2216;53.806;11.598;2023-01-08T10:02:54;8.50;85.80
4406;DHT22;2216;53.806;11.598;2023-01-08T10:05:20;8.50;85.70
4406;DHT22;2216;53.806;11.598;2023-01-08T10:07:47;8.50;85.90
4406;DHT22;2216;53.806;11.598;2023-01-08T10:10:27;8.50;85.80
4406;DHT22;2216;53.806;11.598;2023-01-08T10:12:54;8.60;85.90
4406;DHT22;2216;53.806;11.598;2023-01-08T10:15:20;8.60;85.90
4406;DHT22;2216;53.806;11.598;2023-01-08T10:18:09;8.60;86.00
4406;DHT22;2216;53.806;11.598;2023-01-08T10:20:37;8.60;85.90
4406;DHT22;2216;53.806;11.598;2023-01-08T10:23:15;8.60;85.90
4406;DHT22;2216;53.806;11.598;2023-01-08T10:28:26;8.70;86.20
4406;DHT22;2216;53.806;11.598;2023-01-08T10:30:59;8.70;85.90
4406;DHT22;2216;53.806;11.598;2023-01-08T10:33:36;8.70;85.90
4406;DHT22;2216;53.806;11.598;2023-01-08T10:36:06;8.80;85.80
4406;DHT22;2216;53.806;11.598;2023-01-08T10:38:55;8.70;85.80
4406;DHT22;2216;53.806;11.598;2023-01-08T10:41:23;8.80;85.90
4406;DHT22;2216;53.806;11.598;2023-01-08T10:44:01;8.80;86.00
4406;DHT22;2216;53.806;11.598;2023-01-08T10:46:34;8.80;86.10
4406;DHT22;2216;53.806;11.598;2023-01-08T10:49:06;8.80;86.10
4406;DHT22;2216;53.806;11.598;2023-01-08T10:51:58;8.90;86.00
4406;DHT22;2216;53.806;11.598;2023-01-08T10:54:38;8.90;86.10
4406;DHT22;2216;53.806;11.598;2023-01-08T10:57:24;8.90;85.90
4406;DHT22;2216;53.806;11.598;2023-01-08T10:59:54;8.90;86.00
4406;DHT22;2216;53.806;11.598;2023-01-08T11:05:01;9.00;86.10
4406;DHT22;2216;53.806;11.598;2023-01-08T11:07:29;9.00;86.20
4406;DHT22;2216;53.806;11.598;2023-01-08T11:09:56;9.00;86.30
4406;DHT22;2216;53.806;11.598;2023-01-08T11:12:37;9.00;86.10
4406;DHT22;2216;53.806;11.598;2023-01-08T11:15:31;9.00;86.30
4406;DHT22;2216;53.806;11.598;2023-01-08T11:18:11;9.00;86.10
4406;DHT22;2216;53.806;11.598;2023-01-08T11:20:38;9.10;86.30
4406;DHT22;2216;53.806;11.598;2023-01-08T11:25:42;9.10;86.20
4406;DHT22;2216;53.806;11.598;2023-01-08T11:28:15;9.20;86.40
4406;DHT22;2216;53.806;11.598;2023-01-08T11:30:52;9.20;87.10
4406;DHT22;2216;53.806;11.598;2023-01-08T11:33:23;9.20;86.30
4406;DHT22;2216;53.806;11.598;2023-01-08T11:36:01;9.20;86.40
4406;DHT22;2216;53.806;11.598;2023-01-08T11:38:32;9.30;86.50
4406;DHT22;2216;53.806;11.598;2023-01-08T11:44:16;9.30;86.40
4406;DHT22;2216;53.806;11.598;2023-01-08T11:50:19;9.40;86.20
4406;DHT22;2216;53.806;11.598;2023-01-08T11:53:00;9.40;86.20
4406;DHT22;2216;53.806;11.598;2023-01-08T11:59:22;9.40;86.30
4406;DHT22;2216;53.806;11.598;2023-01-08T12:01:56;9.40;86.60
4406;DHT22;2216;53.806;11.598;2023-01-08T12:04:42;9.40;86.30
4406;DHT22;2216;53.806;11.598;2023-01-08T12:07:45;9.40;86.30
4406;DHT22;2216;53.806;11.598;2023-01-08T12:10:23;9.40;86.40
4406;DHT22;2216;53.806;11.598;2023-01-08T12:19:24;9.50;86.30
4406;DHT22;2216;53.806;11.598;2023-01-08T12:22:24;9.50;86.30
4406;DHT22;2216;53.806;11.598;2023-01-08T12:28:05;9.50;86.30
4406;DHT22;2216;53.806;11.598;2023-01-08T12:31:13;9.50;86.30
4406;DHT22;2216;53.806;11.598;2023-01-08T12:34:04;9.70;86.20
4406;DHT22;2216;53.806;11.598;2023-01-08T12:36:41;9.50;86.10
4406;DHT22;2216;53.806;11.598;2023-01-08T12:39:15;9.50;86.10
4406;DHT22;2216;53.806;11.598;2023-01-08T12:41:46;9.50;86.00
4406;DHT22;2216;53.806;11.598;2023-01-08T12:44:17;9.60;86.10
4406;DHT22;2216;53.806;11.598;2023-01-08T12:46:51;9.50;86.10
4406;DHT22;2216;53.806;11.598;2023-01-08T12:49:27;9.60;86.20
4406;DHT22;2216;53.806;11.598;2023-01-08T12:52:21;9.60;86.20
4406;DHT22;2216;53.806;11.598;2023-01-08T12:55:00;9.60;86.30
4406;DHT22;2216;53.806;11.598;2023-01-08T12:57:38;9.60;86.20
4406;DHT22;2216;53.806;11.598;2023-01-08T13:10:54;9.60;86.20
4406;DHT22;2216;53.806;11.598;2023-01-08T13:13:29;9.70;86.10
4406;DHT22;2216;53.806;11.598;2023-01-08T13:19:02;9.70;86.10
4406;DHT22;2216;53.806;11.598;2023-01-08T13:21:34;9.70;86.10
4406;DHT22;2216;53.806;11.598;2023-01-08T13:29:46;9.70;85.90
4406;DHT22;2216;53.806;11.598;2023-01-08T13:37:40;9.70;86.00
4406;DHT22;2216;53.806;11.598;2023-01-08T13:43:02;9.70;85.80
4406;DHT22;2216;53.806;11.598;2023-01-08T13:45:37;9.70;85.90
4406;DHT22;2216;53.806;11.598;2023-01-08T13:48:03;9.70;85.90
4406;DHT22;2216;53.806;11.598;2023-01-08T13:50:28;9.70;85.90
4406;DHT22;2216;53.806;11.598;2023-01-08T13:53:04;9.70;85.90
4406;DHT22;2216;53.806;11.598;2023-01-08T13:55:35;9.70;85.90
4406;DHT22;2216;53.806;11.598;2023-01-08T13:58:22;9.70;86.00
4406;DHT22;2216;53.806;11.598;2023-01-08T14:00:52;9.90;86.20
4406;DHT22;2216;53.806;11.598;2023-01-08T14:03:34;9.70;86.00
4406;DHT22;2216;53.806;11.598;2023-01-08T14:11:24;9.70;85.90
4406;DHT22;2216;53.806;11.598;2023-01-08T14:13:56;9.70;85.90
4406;DHT22;2216;53.806;11.598;2023-01-08T14:16:22;9.90;86.00
4406;DHT22;2216;53.806;11.598;2023-01-08T14:18:49;9.70;86.00
4406;DHT22;2216;53.806;11.598;2023-01-08T14:21:20;9.80;85.90
4406;DHT22;2216;53.806;11.598;2023-01-08T14:23:48;9.70;86.70
4406;DHT22;2216;53.806;11.598;2023-01-08T14:26:35;9.80;85.90
4406;DHT22;2216;53.806;11.598;2023-01-08T14:29:19;9.70;85.80
4406;DHT22;2216;53.806;11.598;2023-01-08T14:31:56;9.80;85.90
4406;DHT22;2216;53.806;11.598;2023-01-08T14:34:29;9.80;85.90
4406;DHT22;2216;53.806;11.598;2023-01-08T14:36:55;9.80;85.80
4406;DHT22;2216;53.806;11.598;2023-01-08T14:39:24;9.80;85.90
4406;DHT22;2216;53.806;11.598;2023-01-08T14:42:05;9.80;85.80
4406;DHT22;2216;53.806;11.598;2023-01-08T14:44:57;9.80;85.80
4406;DHT22;2216;53.806;11.598;2023-01-08T14:47:29;9.80;85.80
4406;DHT22;2216;53.806;11.598;2023-01-08T14:49:59;9.70;85.70
4406;DHT22;2216;53.806;11.598;2023-01-08T14:52:25;9.70;85.60
4406;DHT22;2216;53.806;11.598;2023-01-08T14:54:54;9.70;85.70
4406;DHT22;2216;53.806;11.598;2023-01-08T14:57:22;9.70;85.60
4406;DHT22;2216;53.806;11.598;2023-01-08T14:59:52;9.70;85.50
4406;DHT22;2216;53.806;11.598;2023-01-08T15:02:33;9.60;85.40
4406;DHT22;2216;53.806;11.598;2023-01-08T15:05:29;9.60;85.30
4406;DHT22;2216;53.806;11.598;2023-01-08T15:08:02;9.60;85.30
4406;DHT22;2216;53.806;11.598;2023-01-08T15:11:03;9.60;85.30
4406;DHT22;2216;53.806;11.598;2023-01-08T15:13:35;9.50;85.30
4406;DHT22;2216;53.806;11.598;2023-01-08T15:16:08;9.50;85.40
4406;DHT22;2216;53.806;11.598;2023-01-08T15:18:42;9.60;85.50
4406;DHT22;2216;53.806;11.598;2023-01-08T15:21:09;9.50;85.40
4406;DHT22;2216;53.806;11.598;2023-01-08T15:23:39;9.50;85.40
4406;DHT22;2216;53.806;11.598;2023-01-08T15:26:11;9.40;85.50
4406;DHT22;2216;53.806;11.598;2023-01-08T15:34:07;9.40;85.60
4406;DHT22;2216;53.806;11.598;2023-01-08T15:36:33;9.40;85.50
4406;DHT22;2216;53.806;11.598;2023-01-08T15:38:59;9.40;85.50
4406;DHT22;2216;53.806;11.598;2023-01-08T15:41:31;9.40;85.50
4406;DHT22;2216;53.806;11.598;2023-01-08T15:44:17;9.30;85.50
4406;DHT22;2216;53.806;11.598;2023-01-08T15:46:42;9.30;85.50
4406;DHT22;2216;53.806;11.598;2023-01-08T15:49:08;9.30;86.20
4406;DHT22;2216;53.806;11.598;2023-01-08T15:51:36;9.30;85.40
4406;DHT22;2216;53.806;11.598;2023-01-08T15:54:06;9.10;85.30
4406;DHT22;2216;53.806;11.598;2023-01-08T15:56:34;9.20;86.00
4406;DHT22;2216;53.806;11.598;2023-01-08T15:59:00;9.20;85.30
4406;DHT22;2216;53.806;11.598;2023-01-08T16:01:26;9.20;85.30
4406;DHT22;2216;53.806;11.598;2023-01-08T16:03:52;9.10;85.30
4406;DHT22;2216;53.806;11.598;2023-01-08T16:06:18;9.10;85.30
4406;DHT22;2216;53.806;11.598;2023-01-08T16:08:44;9.10;85.20
4406;DHT22;2216;53.806;11.598;2023-01-08T16:11:11;9.10;85.30
4406;DHT22;2216;53.806;11.598;2023-01-08T16:13:38;9.00;85.30
4406;DHT22;2216;53.806;11.598;2023-01-08T16:16:12;9.00;85.40
4406;DHT22;2216;53.806;11.598;2023-01-08T16:18:39;9.00;85.60
4406;DHT22;2216;53.806;11.598;2023-01-08T16:21:06;9.00;85.60
4406;DHT22;2216;53.806;11.598;2023-01-08T16:23:34;9.00;85.70
4406;DHT22;2216;53.806;11.598;2023-01-08T16:26:12;8.90;85.70
4406;DHT22;2216;53.806;11.598;2023-01-08T16:28:39;8.90;85.60
4406;DHT22;2216;53.806;11.598;2023-01-08T16:31:05;8.90;85.60
4406;DHT22;2216;53.806;11.598;2023-01-08T16:33:32;8.90;85.60
4406;DHT22;2216;53.806;11.598;2023-01-08T16:36:04;8.90;85.60
4406;DHT22;2216;53.806;11.598;2023-01-08T16:38:31;8.80;85.50
4406;DHT22;2216;53.806;11.598;2023-01-08T16:40:57;8.90;85.50
4406;DHT22;2216;53.806;11.598;2023-01-08T16:43:24;8.80;85.50
4406;DHT22;2216;53.806;11.598;2023-01-08T16:45:51;8.80;85.60
4406;DHT22;2216;53.806;11.598;2023-01-08T16:48:18;8.90;85.60
4406;DHT22;2216;53.806;11.598;2023-01-08T16:50:44;8.80;85.50
4406;DHT22;2216;53.806;11.598;2023-01-08T16:53:10;8.80;85.70
4406;DHT22;2216;53.806;11.598;2023-01-08T16:55:37;8.70;85.60
4406;DHT22;2216;53.806;11.598;2023-01-08T16:58:03;8.80;85.70
4406;DHT22;2216;53.806;11.598;2023-01-08T17:00:36;8.80;85.90
4406;DHT22;2216;53.806;11.598;2023-01-08T17:03:03;8.70;85.70
4406;DHT22;2216;53.806;11.598;2023-01-08T17:05:29;8.70;85.80
4406;DHT22;2216;53.806;11.598;2023-01-08T17:07:55;8.70;85.80
4406;DHT22;2216;53.806;11.598;2023-01-08T17:10:22;8.70;85.70
4406;DHT22;2216;53.806;11.598;2023-01-08T17:12:50;8.70;85.80
4406;DHT22;2216;53.806;11.598;2023-01-08T17:15:16;8.70;85.70
4406;DHT22;2216;53.806;11.598;2023-01-08T17:17:42;8.70;85.70
4406;DHT22;2216;53.806;11.598;2023-01-08T17:20:08;8.70;85.70
4406;DHT22;2216;53.806;11.598;2023-01-08T17:22:35;8.60;85.70
4406;DHT22;2216;53.806;11.598;2023-01-08T17:25:01;8.60;85.70
4406;DHT22;2216;53.806;11.598;2023-01-08T17:27:26;8.60;85.70
4406;DHT22;2216;53.806;11.598;2023-01-08T17:29:52;8.60;85.70
4406;DHT22;2216;53.806;11.598;2023-01-08T17:32:18;8.60;85.80
4406;DHT22;2216;53.806;11.598;2023-01-08T17:34:44;8.60;85.90
4406;DHT22;2216;53.806;11.598;2023-01-08T17:37:10;8.60;85.80